Manoel Viana, Brazil
Current Conditions -  °F | °C
As of 11:00 AM on Saturday 20 Dec 2014 (Local Time) from SBUG Reporting Station
Scattered Clouds Scattered Clouds  
Wind Chill: 82°   Ceiling: Unl
Heat Index: 85°   Visibility: 6mi
Dew Point: 66°   Wind: 12mph
Humidity: 58%   Direction: 30°NNE
Pressure: 29.59"   Gusts: NA
Location:  29.59°S, 55.48°W
Report Text: SBUG 201300Z 03010KT 9999 FEW015 SCT080 28/19 Q1002
Loading
Personal Weather Stations






























Interactive Weather Map New forecast layout! Learn more

10-Day Weather Forecast

Advertisements
Track Severe Weather on mobile